N88CX TDPD-TVSM
Flight info
| Callsign | N88CX |
|---|---|
| Flight time | 0h 57m |
| Altitude | 7000 |
| Route | KAROT1 FOF A324 SV |
| Aircraft | AEST/L-SDFGRY/S |
Departure
| Time | 2026-04-18 22:01 |
|---|---|
| Airport | Douglas-Charles Airport (TDPD) |
Arrival
| Time | 2026-04-18 22:58 |
|---|---|
| Airport | Mustique Airport (TVSM) |
| Time | Latitude | Longitude | Altitude | Speed | Heading |
|---|---|---|---|---|---|
| 2026-04-18 21:48 | 15.54574 | -61.30166 | 54 ft | 0 kts | 288° |
| 2026-04-18 21:57 | 15.54574 | -61.30167 | 54 ft | 3 kts | 288° |
| 2026-04-18 21:57 | 15.54605 | -61.30230 | 56 ft | 16 kts | 288° |
| 2026-04-18 21:57 | 15.54574 | -61.30371 | 59 ft | 24 kts | 250° |
| 2026-04-18 21:57 | 15.54513 | -61.30547 | 65 ft | 16 kts | 250° |
| 2026-04-18 21:58 | 15.54491 | -61.30631 | 73 ft | 9 kts | 285° |
| 2026-04-18 21:58 | 15.54494 | -61.30602 | 71 ft | 0 kts | 70° |
| 2026-04-18 21:59 | 15.54495 | -61.30599 | 71 ft | 0 kts | 69° |
| 2026-04-18 22:00 | 15.54596 | -61.30316 | 58 ft | 78 kts | 69° |
| 2026-04-18 22:00 | 15.54838 | -61.29690 | 153 ft | 102 kts | 71° |
| 2026-04-18 22:00 | 15.55140 | -61.28985 | 461 ft | 117 kts | 69° |
| 2026-04-18 22:01 | 15.55463 | -61.28202 | 837 ft | 116 kts | 72° |
| 2026-04-18 22:01 | 15.55731 | -61.27436 | 1198 ft | 113 kts | 72° |
| 2026-04-18 22:01 | 15.56023 | -61.26646 | 1487 ft | 126 kts | 72° |
| 2026-04-18 22:01 | 15.56346 | -61.25769 | 1788 ft | 133 kts | 70° |
| 2026-04-18 22:02 | 15.56635 | -61.24848 | 1919 ft | 138 kts | 75° |
| 2026-04-18 22:02 | 15.56986 | -61.23893 | 2063 ft | 143 kts | 62° |
| 2026-04-18 22:02 | 15.57468 | -61.22982 | 2295 ft | 145 kts | 75° |
| 2026-04-18 22:02 | 15.57569 | -61.21966 | 2498 ft | 141 kts | 97° |
| 2026-04-18 22:03 | 15.57358 | -61.20978 | 2734 ft | 139 kts | 103° |
| 2026-04-18 22:03 | 15.57218 | -61.20013 | 2918 ft | 139 kts | 86° |
| 2026-04-18 22:03 | 15.57044 | -61.19004 | 2985 ft | 147 kts | 116° |
| 2026-04-18 22:03 | 15.56317 | -61.18256 | 3135 ft | 152 kts | 149° |
| 2026-04-18 22:04 | 15.55282 | -61.17990 | 3334 ft | 155 kts | 170° |
| 2026-04-18 22:04 | 15.54211 | -61.18006 | 3583 ft | 154 kts | 176° |
| 2026-04-18 22:04 | 15.53137 | -61.18003 | 3774 ft | 156 kts | 169° |
| 2026-04-18 22:04 | 15.52076 | -61.17752 | 3935 ft | 157 kts | 156° |
| 2026-04-18 22:05 | 15.51025 | -61.17483 | 4148 ft | 154 kts | 164° |
| 2026-04-18 22:05 | 15.49960 | -61.17316 | 4332 ft | 156 kts | 166° |
| 2026-04-18 22:05 | 15.48887 | -61.17096 | 4479 ft | 158 kts | 158° |
| 2026-04-18 22:05 | 15.47868 | -61.16688 | 4639 ft | 156 kts | 155° |
| 2026-04-18 22:06 | 15.46812 | -61.16419 | 4799 ft | 157 kts | 167° |
| 2026-04-18 22:06 | 15.45708 | -61.16352 | 4936 ft | 161 kts | 172° |
| 2026-04-18 22:06 | 15.44597 | -61.16245 | 5102 ft | 160 kts | 165° |
| 2026-04-18 22:06 | 15.43489 | -61.16119 | 5188 ft | 163 kts | 181° |
| 2026-04-18 22:07 | 15.42378 | -61.16477 | 5283 ft | 169 kts | 197° |
| 2026-04-18 22:07 | 15.41281 | -61.16892 | 5488 ft | 167 kts | 193° |
| 2026-04-18 22:07 | 15.40171 | -61.17244 | 5629 ft | 167 kts | 190° |
| 2026-04-18 22:07 | 15.39031 | -61.17420 | 5771 ft | 166 kts | 173° |
| 2026-04-18 22:08 | 15.37900 | -61.17272 | 5918 ft | 163 kts | 165° |
| 2026-04-18 22:08 | 15.36781 | -61.17063 | 6092 ft | 163 kts | 164° |
| 2026-04-18 22:08 | 15.35679 | -61.16838 | 6278 ft | 163 kts | 163° |
| 2026-04-18 22:08 | 15.34563 | -61.16605 | 6464 ft | 164 kts | 163° |
| 2026-04-18 22:09 | 15.33446 | -61.16350 | 6634 ft | 166 kts | 164° |
| 2026-04-18 22:09 | 15.32315 | -61.16105 | 6789 ft | 167 kts | 165° |
| 2026-04-18 22:09 | 15.31145 | -61.15877 | 6842 ft | 174 kts | 167° |
| 2026-04-18 22:09 | 15.29948 | -61.15672 | 6982 ft | 174 kts | 168° |
| 2026-04-18 22:10 | 15.28719 | -61.15483 | 6987 ft | 185 kts | 168° |
| 2026-04-18 22:10 | 15.27424 | -61.15262 | 6962 ft | 192 kts | 167° |
| 2026-04-18 22:10 | 15.26088 | -61.15040 | 6958 ft | 197 kts | 166° |
| 2026-04-18 22:10 | 15.24719 | -61.14767 | 6960 ft | 202 kts | 165° |
| 2026-04-18 22:11 | 15.23331 | -61.14463 | 6957 ft | 206 kts | 165° |
| 2026-04-18 22:11 | 15.21914 | -61.14177 | 6957 ft | 208 kts | 166° |
| 2026-04-18 22:11 | 15.20486 | -61.13894 | 6969 ft | 210 kts | 166° |
| 2026-04-18 22:11 | 15.19058 | -61.13637 | 6966 ft | 212 kts | 167° |
| 2026-04-18 22:12 | 15.16143 | -61.13080 | 6961 ft | 214 kts | 167° |
| 2026-04-18 22:12 | 15.14676 | -61.12800 | 6960 ft | 215 kts | 167° |
| 2026-04-18 22:12 | 15.13196 | -61.12530 | 6953 ft | 215 kts | 167° |
| 2026-04-18 22:13 | 15.11722 | -61.12248 | 6958 ft | 214 kts | 167° |
| 2026-04-18 22:13 | 15.10260 | -61.11965 | 6952 ft | 213 kts | 167° |
| 2026-04-18 22:13 | 15.08808 | -61.11706 | 6963 ft | 212 kts | 167° |
| 2026-04-18 22:13 | 15.07351 | -61.11454 | 6959 ft | 212 kts | 167° |
| 2026-04-18 22:14 | 15.05916 | -61.11188 | 6966 ft | 212 kts | 166° |
| 2026-04-18 22:14 | 15.04466 | -61.10894 | 6962 ft | 212 kts | 166° |
| 2026-04-18 22:14 | 15.03016 | -61.10621 | 6968 ft | 212 kts | 166° |
| 2026-04-18 22:14 | 15.01569 | -61.10336 | 6958 ft | 211 kts | 166° |
| 2026-04-18 22:15 | 15.00126 | -61.10040 | 6965 ft | 212 kts | 166° |
| 2026-04-18 22:15 | 14.99150 | -61.09850 | 6966 ft | 211 kts | 166° |
| 2026-04-18 22:15 | 14.97727 | -61.09566 | 6959 ft | 211 kts | 167° |
| 2026-04-18 22:15 | 14.96281 | -61.09303 | 6961 ft | 211 kts | 167° |
| 2026-04-18 22:16 | 14.94830 | -61.09045 | 6961 ft | 212 kts | 167° |
| 2026-04-18 22:16 | 14.93379 | -61.08774 | 6958 ft | 212 kts | 167° |
| 2026-04-18 22:16 | 14.91925 | -61.08497 | 6962 ft | 213 kts | 167° |
| 2026-04-18 22:16 | 14.90468 | -61.08216 | 6961 ft | 213 kts | 167° |
| 2026-04-18 22:17 | 14.89007 | -61.07954 | 6957 ft | 213 kts | 167° |
| 2026-04-18 22:17 | 14.87549 | -61.07690 | 6959 ft | 212 kts | 167° |
| 2026-04-18 22:17 | 14.86095 | -61.07403 | 6959 ft | 213 kts | 166° |
| 2026-04-18 22:17 | 14.84640 | -61.07124 | 6956 ft | 212 kts | 167° |
| 2026-04-18 22:18 | 14.83204 | -61.06864 | 6963 ft | 212 kts | 166° |
| 2026-04-18 22:18 | 14.81750 | -61.06595 | 6951 ft | 211 kts | 166° |
| 2026-04-18 22:18 | 14.80308 | -61.06303 | 6962 ft | 211 kts | 166° |
| 2026-04-18 22:18 | 14.78863 | -61.05999 | 6962 ft | 212 kts | 166° |
| 2026-04-18 22:19 | 14.77411 | -61.05715 | 6958 ft | 213 kts | 167° |
| 2026-04-18 22:19 | 14.75950 | -61.05454 | 6941 ft | 212 kts | 167° |
| 2026-04-18 22:19 | 14.74509 | -61.05184 | 6943 ft | 210 kts | 167° |
| 2026-04-18 22:19 | 14.73077 | -61.04915 | 6943 ft | 209 kts | 167° |
| 2026-04-18 22:20 | 14.71651 | -61.04660 | 6945 ft | 207 kts | 167° |
| 2026-04-18 22:20 | 14.70229 | -61.04402 | 6946 ft | 206 kts | 167° |
| 2026-04-18 22:20 | 14.68819 | -61.04158 | 6944 ft | 205 kts | 167° |
| 2026-04-18 22:20 | 14.67416 | -61.03884 | 6939 ft | 204 kts | 166° |
| 2026-04-18 22:21 | 14.66023 | -61.03615 | 6935 ft | 203 kts | 166° |
| 2026-04-18 22:21 | 14.64637 | -61.03349 | 6947 ft | 202 kts | 166° |
| 2026-04-18 22:21 | 14.63252 | -61.03078 | 6942 ft | 203 kts | 165° |
| 2026-04-18 22:21 | 14.61867 | -61.02812 | 6945 ft | 202 kts | 165° |
| 2026-04-18 22:22 | 14.60502 | -61.02544 | 6945 ft | 202 kts | 165° |
| 2026-04-18 22:22 | 14.59120 | -61.02258 | 6944 ft | 202 kts | 166° |
| 2026-04-18 22:22 | 14.57732 | -61.02018 | 6939 ft | 203 kts | 169° |
| 2026-04-18 22:22 | 14.56326 | -61.01938 | 6961 ft | 203 kts | 178° |
| 2026-04-18 22:23 | 14.54909 | -61.01992 | 6947 ft | 204 kts | 180° |
| 2026-04-18 22:23 | 14.53486 | -61.02063 | 6942 ft | 206 kts | 180° |
| 2026-04-18 22:23 | 14.52051 | -61.02066 | 6945 ft | 205 kts | 173° |
| 2026-04-18 22:23 | 14.50627 | -61.01933 | 6943 ft | 205 kts | 170° |
| 2026-04-18 22:24 | 14.49206 | -61.01748 | 6937 ft | 206 kts | 170° |
| 2026-04-18 22:24 | 14.47805 | -61.01611 | 6946 ft | 204 kts | 172° |
| 2026-04-18 22:24 | 14.46389 | -61.01527 | 6944 ft | 204 kts | 173° |
| 2026-04-18 22:24 | 14.44974 | -61.01468 | 6947 ft | 204 kts | 174° |
| 2026-04-18 22:25 | 14.43557 | -61.01418 | 6939 ft | 203 kts | 175° |
| 2026-04-18 22:25 | 14.42144 | -61.01373 | 6943 ft | 204 kts | 175° |
| 2026-04-18 22:25 | 14.40729 | -61.01321 | 6938 ft | 203 kts | 174° |
| 2026-04-18 22:25 | 14.39317 | -61.01249 | 6940 ft | 203 kts | 173° |
| 2026-04-18 22:26 | 14.37903 | -61.01150 | 6945 ft | 204 kts | 173° |
| 2026-04-18 22:26 | 14.36485 | -61.01062 | 6945 ft | 204 kts | 174° |
| 2026-04-18 22:26 | 14.35058 | -61.00991 | 6943 ft | 205 kts | 174° |
| 2026-04-18 22:26 | 14.33632 | -61.00908 | 6946 ft | 205 kts | 174° |
| 2026-04-18 22:27 | 14.32204 | -61.00842 | 6945 ft | 206 kts | 174° |
| 2026-04-18 22:27 | 14.30774 | -61.00792 | 6940 ft | 205 kts | 174° |
| 2026-04-18 22:27 | 14.29350 | -61.00712 | 6945 ft | 205 kts | 173° |
| 2026-04-18 22:27 | 14.27926 | -61.00611 | 6938 ft | 204 kts | 173° |
| 2026-04-18 22:28 | 14.26508 | -61.00524 | 6938 ft | 204 kts | 173° |
| 2026-04-18 22:28 | 14.25107 | -61.00450 | 6945 ft | 203 kts | 174° |
| 2026-04-18 22:28 | 14.23693 | -61.00361 | 6942 ft | 204 kts | 174° |
| 2026-04-18 22:28 | 14.22272 | -61.00290 | 6943 ft | 205 kts | 174° |
| 2026-04-18 22:29 | 14.20851 | -61.00228 | 6935 ft | 205 kts | 175° |
| 2026-04-18 22:29 | 14.19425 | -61.00177 | 6944 ft | 205 kts | 174° |
| 2026-04-18 22:29 | 14.18002 | -61.00100 | 6942 ft | 205 kts | 174° |
| 2026-04-18 22:29 | 14.16573 | -61.00029 | 6947 ft | 205 kts | 173° |
| 2026-04-18 22:30 | 14.15146 | -60.99952 | 6939 ft | 205 kts | 173° |
| 2026-04-18 22:30 | 14.13718 | -60.99875 | 6945 ft | 204 kts | 173° |
| 2026-04-18 22:30 | 14.12301 | -60.99769 | 6944 ft | 203 kts | 173° |
| 2026-04-18 22:30 | 14.10902 | -60.99686 | 6947 ft | 204 kts | 174° |
| 2026-04-18 22:31 | 14.09489 | -60.99612 | 6949 ft | 203 kts | 174° |
| 2026-04-18 22:31 | 14.08074 | -60.99526 | 6933 ft | 204 kts | 174° |
| 2026-04-18 22:31 | 14.06660 | -60.99451 | 6950 ft | 203 kts | 175° |
| 2026-04-18 22:31 | 14.05247 | -60.99409 | 6974 ft | 203 kts | 175° |
| 2026-04-18 22:32 | 14.03832 | -60.99370 | 6975 ft | 203 kts | 174° |
| 2026-04-18 22:32 | 14.02418 | -60.99285 | 6976 ft | 204 kts | 173° |
| 2026-04-18 22:32 | 14.00999 | -60.99206 | 6972 ft | 204 kts | 173° |
| 2026-04-18 22:32 | 13.99600 | -60.99124 | 6971 ft | 204 kts | 172° |
| 2026-04-18 22:33 | 13.98180 | -60.99022 | 6969 ft | 204 kts | 172° |
| 2026-04-18 22:33 | 13.96766 | -60.98924 | 6975 ft | 204 kts | 173° |
| 2026-04-18 22:33 | 13.95347 | -60.98838 | 6967 ft | 204 kts | 174° |
| 2026-04-18 22:33 | 13.93928 | -60.98779 | 6969 ft | 204 kts | 174° |
| 2026-04-18 22:34 | 13.92515 | -60.98717 | 6961 ft | 202 kts | 174° |
| 2026-04-18 22:34 | 13.91114 | -60.98643 | 6965 ft | 202 kts | 174° |
| 2026-04-18 22:34 | 13.89705 | -60.98568 | 6962 ft | 202 kts | 174° |
| 2026-04-18 22:34 | 13.88299 | -60.98517 | 6969 ft | 202 kts | 174° |
| 2026-04-18 22:35 | 13.86890 | -60.98454 | 6931 ft | 203 kts | 174° |
| 2026-04-18 22:35 | 13.85477 | -60.98377 | 6952 ft | 203 kts | 173° |
| 2026-04-18 22:35 | 13.84062 | -60.98316 | 6944 ft | 204 kts | 172° |
| 2026-04-18 22:35 | 13.82643 | -60.98232 | 6948 ft | 204 kts | 172° |
| 2026-04-18 22:36 | 13.81225 | -60.98116 | 6939 ft | 204 kts | 172° |
| 2026-04-18 22:36 | 13.79807 | -60.97999 | 6942 ft | 204 kts | 173° |
| 2026-04-18 22:36 | 13.78387 | -60.97927 | 6946 ft | 204 kts | 174° |
| 2026-04-18 22:36 | 13.76972 | -60.97853 | 6946 ft | 204 kts | 175° |
| 2026-04-18 22:37 | 13.75555 | -60.97801 | 6946 ft | 203 kts | 175° |
| 2026-04-18 22:37 | 13.74158 | -60.97766 | 6942 ft | 203 kts | 174° |
| 2026-04-18 22:37 | 13.72759 | -60.97709 | 6929 ft | 204 kts | 175° |
| 2026-04-18 22:37 | 13.71363 | -60.97893 | 6939 ft | 203 kts | 193° |
| 2026-04-18 22:38 | 13.70063 | -60.98487 | 6952 ft | 207 kts | 205° |
| 2026-04-18 22:38 | 13.68783 | -60.99193 | 6952 ft | 209 kts | 201° |
| 2026-04-18 22:38 | 13.67436 | -60.99730 | 6946 ft | 208 kts | 194° |
| 2026-04-18 22:38 | 13.66046 | -61.00161 | 6946 ft | 209 kts | 192° |
| 2026-04-18 22:39 | 13.64649 | -61.00538 | 6945 ft | 207 kts | 192° |
| 2026-04-18 22:39 | 13.63269 | -61.00958 | 6941 ft | 207 kts | 195° |
| 2026-04-18 22:39 | 13.61898 | -61.01450 | 6946 ft | 208 kts | 195° |
| 2026-04-18 22:39 | 13.60524 | -61.01931 | 6940 ft | 210 kts | 195° |
| 2026-04-18 22:40 | 13.59138 | -61.02399 | 6944 ft | 209 kts | 193° |
| 2026-04-18 22:40 | 13.57745 | -61.02837 | 6945 ft | 208 kts | 193° |
| 2026-04-18 22:40 | 13.56361 | -61.03270 | 6942 ft | 209 kts | 194° |
| 2026-04-18 22:40 | 13.54979 | -61.03723 | 6943 ft | 208 kts | 194° |
| 2026-04-18 22:41 | 13.53603 | -61.04168 | 6936 ft | 207 kts | 195° |
| 2026-04-18 22:41 | 13.52226 | -61.04644 | 6944 ft | 209 kts | 195° |
| 2026-04-18 22:41 | 13.50842 | -61.05104 | 6942 ft | 210 kts | 194° |
| 2026-04-18 22:41 | 13.49450 | -61.05572 | 6939 ft | 211 kts | 194° |
| 2026-04-18 22:42 | 13.48066 | -61.06012 | 6936 ft | 210 kts | 193° |
| 2026-04-18 22:42 | 13.46674 | -61.06440 | 6937 ft | 210 kts | 194° |
| 2026-04-18 22:42 | 13.45288 | -61.06896 | 6939 ft | 209 kts | 194° |
| 2026-04-18 22:42 | 13.43904 | -61.07351 | 6940 ft | 209 kts | 195° |
| 2026-04-18 22:43 | 13.42523 | -61.07821 | 6937 ft | 209 kts | 195° |
| 2026-04-18 22:43 | 13.41141 | -61.08293 | 6938 ft | 209 kts | 195° |
| 2026-04-18 22:43 | 13.39752 | -61.08749 | 6929 ft | 209 kts | 194° |
| 2026-04-18 22:43 | 13.38361 | -61.09196 | 6935 ft | 210 kts | 194° |
| 2026-04-18 22:44 | 13.36971 | -61.09630 | 6937 ft | 209 kts | 194° |
| 2026-04-18 22:44 | 13.35585 | -61.10086 | 6942 ft | 208 kts | 195° |
| 2026-04-18 22:44 | 13.34203 | -61.10536 | 6937 ft | 208 kts | 195° |
| 2026-04-18 22:44 | 13.32823 | -61.10999 | 6937 ft | 208 kts | 195° |
| 2026-04-18 22:45 | 13.31440 | -61.11466 | 6933 ft | 209 kts | 195° |
| 2026-04-18 22:45 | 13.30068 | -61.11913 | 6937 ft | 210 kts | 194° |
| 2026-04-18 22:45 | 13.28675 | -61.12361 | 6933 ft | 209 kts | 194° |
| 2026-04-18 22:45 | 13.27282 | -61.12809 | 6934 ft | 210 kts | 194° |
| 2026-04-18 22:46 | 13.25888 | -61.13264 | 6935 ft | 210 kts | 195° |
| 2026-04-18 22:46 | 13.24502 | -61.13723 | 6937 ft | 209 kts | 195° |
| 2026-04-18 22:46 | 13.23114 | -61.14174 | 6939 ft | 209 kts | 195° |
| 2026-04-18 22:46 | 13.21727 | -61.14641 | 6938 ft | 210 kts | 195° |
| 2026-04-18 22:47 | 13.20340 | -61.15096 | 6932 ft | 209 kts | 194° |
| 2026-04-18 22:47 | 13.18946 | -61.15554 | 6937 ft | 210 kts | 194° |
| 2026-04-18 22:47 | 13.17551 | -61.16002 | 6926 ft | 211 kts | 194° |
| 2026-04-18 22:47 | 13.16154 | -61.16448 | 6931 ft | 210 kts | 195° |
| 2026-04-18 22:48 | 13.14765 | -61.16907 | 6933 ft | 209 kts | 195° |
| 2026-04-18 22:48 | 13.13380 | -61.17362 | 6924 ft | 203 kts | 195° |
| 2026-04-18 22:48 | 13.12080 | -61.17794 | 6822 ft | 195 kts | 195° |
| 2026-04-18 22:48 | 13.10825 | -61.18215 | 6699 ft | 184 kts | 194° |
| 2026-04-18 22:49 | 13.09628 | -61.18609 | 6555 ft | 177 kts | 194° |
| 2026-04-18 22:49 | 13.08470 | -61.18987 | 6405 ft | 173 kts | 193° |
| 2026-04-18 22:49 | 13.07337 | -61.19352 | 6236 ft | 169 kts | 192° |
| 2026-04-18 22:49 | 13.06222 | -61.19699 | 6055 ft | 166 kts | 193° |
| 2026-04-18 22:50 | 13.05125 | -61.20050 | 5874 ft | 164 kts | 193° |
| 2026-04-18 22:50 | 13.04041 | -61.20412 | 5698 ft | 163 kts | 194° |
| 2026-04-18 22:50 | 13.02963 | -61.20771 | 5527 ft | 162 kts | 194° |
| 2026-04-18 22:50 | 13.01888 | -61.21121 | 5344 ft | 162 kts | 193° |
| 2026-04-18 22:51 | 13.00818 | -61.21473 | 5164 ft | 161 kts | 194° |
| 2026-04-18 22:51 | 12.99754 | -61.21834 | 4995 ft | 161 kts | 193° |
| 2026-04-18 22:51 | 12.98689 | -61.22177 | 4822 ft | 160 kts | 193° |
| 2026-04-18 22:51 | 12.97638 | -61.22514 | 4655 ft | 160 kts | 193° |
| 2026-04-18 22:52 | 12.96576 | -61.22858 | 4485 ft | 160 kts | 192° |
| 2026-04-18 22:52 | 12.95513 | -61.23195 | 4316 ft | 160 kts | 193° |
| 2026-04-18 22:52 | 12.94437 | -61.23552 | 4106 ft | 164 kts | 193° |
| 2026-04-18 22:52 | 12.93365 | -61.23908 | 3919 ft | 158 kts | 193° |
| 2026-04-18 22:53 | 12.92321 | -61.24246 | 3581 ft | 158 kts | 193° |
| 2026-04-18 22:53 | 12.91268 | -61.24596 | 3250 ft | 160 kts | 193° |
| 2026-04-18 22:53 | 12.90217 | -61.24939 | 2951 ft | 157 kts | 193° |
| 2026-04-18 22:53 | 12.89218 | -61.25394 | 2560 ft | 161 kts | 209° |
| 2026-04-18 22:54 | 12.88287 | -61.26048 | 2251 ft | 161 kts | 211° |
| 2026-04-18 22:54 | 12.87370 | -61.26707 | 1979 ft | 164 kts | 210° |
| 2026-04-18 22:54 | 12.86333 | -61.27136 | 1722 ft | 158 kts | 182° |
| 2026-04-18 22:54 | 12.85309 | -61.27042 | 1597 ft | 141 kts | 149° |
| 2026-04-18 22:55 | 12.84655 | -61.26405 | 1503 ft | 119 kts | 109° |
| 2026-04-18 22:55 | 12.84656 | -61.25648 | 1571 ft | 110 kts | 63° |
| 2026-04-18 22:55 | 12.85128 | -61.25005 | 1530 ft | 115 kts | 54° |
| 2026-04-18 22:55 | 12.85655 | -61.24377 | 1392 ft | 118 kts | 52° |
| 2026-04-18 22:56 | 12.86202 | -61.23722 | 1153 ft | 119 kts | 54° |
| 2026-04-18 22:56 | 12.86667 | -61.23152 | 888 ft | 91 kts | 58° |
| 2026-04-18 22:56 | 12.87041 | -61.22601 | 735 ft | 99 kts | 62° |
| 2026-04-18 22:56 | 12.87280 | -61.21912 | 742 ft | 108 kts | 72° |
| 2026-04-18 22:57 | 12.87634 | -61.21262 | 645 ft | 106 kts | 58° |
| 2026-04-18 22:57 | 12.87941 | -61.20563 | 580 ft | 106 kts | 73° |
| 2026-04-18 22:57 | 12.88178 | -61.19857 | 425 ft | 105 kts | 73° |
| 2026-04-18 22:57 | 12.88398 | -61.19156 | 291 ft | 102 kts | 72° |
| 2026-04-18 22:58 | 12.88609 | -61.18504 | 109 ft | 86 kts | 71° |
| 2026-04-18 22:58 | 12.88761 | -61.18049 | 18 ft | 49 kts | 71° |
| 2026-04-18 22:58 | 12.88808 | -61.17904 | 21 ft | 6 kts | 4° |
| 2026-04-18 22:58 | 12.88785 | -61.17976 | 20 ft | 14 kts | 246° |
| 2026-04-18 22:59 | 12.88747 | -61.17994 | 20 ft | 7 kts | 156° |
| 2026-04-18 22:59 | 12.88703 | -61.17976 | 20 ft | 7 kts | 163° |
| 2026-04-18 22:59 | 12.88690 | -61.17984 | 19 ft | 2 kts | 301° |
| 2026-04-18 22:59 | 12.88697 | -61.17985 | 19 ft | 0 kts | 26° |